sensor_id;sensor_type;location;lat;lon;timestamp;temperature;humidity
18139;DHT22;9195;53.176;9.486;2022-10-16T00:01:58;13.30;99.90
18139;DHT22;9195;53.176;9.486;2022-10-16T00:04:24;13.30;99.90
18139;DHT22;9195;53.176;9.486;2022-10-16T00:06:49;13.30;99.90
18139;DHT22;9195;53.176;9.486;2022-10-16T00:09:15;13.20;99.90
18139;DHT22;9195;53.176;9.486;2022-10-16T00:11:41;13.20;99.90
18139;DHT22;9195;53.176;9.486;2022-10-16T00:14:12;13.20;99.90
18139;DHT22;9195;53.176;9.486;2022-10-16T00:16:38;13.30;99.90
18139;DHT22;9195;53.176;9.486;2022-10-16T00:19:04;13.20;99.90
18139;DHT22;9195;53.176;9.486;2022-10-16T00:21:31;13.20;99.90
18139;DHT22;9195;53.176;9.486;2022-10-16T00:24:03;13.20;99.90
18139;DHT22;9195;53.176;9.486;2022-10-16T00:26:31;13.20;99.90
18139;DHT22;9195;53.176;9.486;2022-10-16T00:28:57;13.20;99.90
18139;DHT22;9195;53.176;9.486;2022-10-16T00:31:23;13.20;99.90
18139;DHT22;9195;53.176;9.486;2022-10-16T00:33:49;13.20;99.90
18139;DHT22;9195;53.176;9.486;2022-10-16T00:36:18;13.20;99.90
18139;DHT22;9195;53.176;9.486;2022-10-16T00:38:44;13.20;99.90
18139;DHT22;9195;53.176;9.486;2022-10-16T00:41:12;13.20;99.90
18139;DHT22;9195;53.176;9.486;2022-10-16T00:43:53;13.20;99.90
18139;DHT22;9195;53.176;9.486;2022-10-16T00:46:35;13.20;99.90
18139;DHT22;9195;53.176;9.486;2022-10-16T00:49:10;13.10;99.90
18139;DHT22;9195;53.176;9.486;2022-10-16T00:51:42;13.20;99.90
18139;DHT22;9195;53.176;9.486;2022-10-16T00:54:13;13.10;99.90
18139;DHT22;9195;53.176;9.486;2022-10-16T00:56:40;13.10;99.90
18139;DHT22;9195;53.176;9.486;2022-10-16T00:59:20;13.10;99.90
18139;DHT22;9195;53.176;9.486;2022-10-16T01:01:48;13.10;99.90
18139;DHT22;9195;53.176;9.486;2022-10-16T01:04:14;13.10;99.90
18139;DHT22;9195;53.176;9.486;2022-10-16T01:10:05;13.00;99.90
18139;DHT22;9195;53.176;9.486;2022-10-16T01:15:34;12.90;99.90
18139;DHT22;9195;53.176;9.486;2022-10-16T01:18:04;12.90;99.90
18139;DHT22;9195;53.176;9.486;2022-10-16T01:20:33;12.90;99.90
18139;DHT22;9195;53.176;9.486;2022-10-16T01:26:09;12.90;99.90
18139;DHT22;9195;53.176;9.486;2022-10-16T01:28:53;12.90;99.90
18139;DHT22;9195;53.176;9.486;2022-10-16T01:31:24;12.90;99.90
18139;DHT22;9195;53.176;9.486;2022-10-16T01:36:49;12.80;99.90
18139;DHT22;9195;53.176;9.486;2022-10-16T01:39:20;12.80;99.90
18139;DHT22;9195;53.176;9.486;2022-10-16T01:41:50;12.80;99.90
18139;DHT22;9195;53.176;9.486;2022-10-16T01:44:25;12.80;99.90
18139;DHT22;9195;53.176;9.486;2022-10-16T01:46:53;12.80;99.90
18139;DHT22;9195;53.176;9.486;2022-10-16T01:49:21;12.70;99.90
18139;DHT22;9195;53.176;9.486;2022-10-16T01:51:49;12.70;99.90
18139;DHT22;9195;53.176;9.486;2022-10-16T01:54:18;12.70;99.90
18139;DHT22;9195;53.176;9.486;2022-10-16T01:56:45;12.70;99.90
18139;DHT22;9195;53.176;9.486;2022-10-16T01:59:15;12.60;99.90
18139;DHT22;9195;53.176;9.486;2022-10-16T02:01:47;12.60;99.90
18139;DHT22;9195;53.176;9.486;2022-10-16T02:04:21;12.50;99.90
18139;DHT22;9195;53.176;9.486;2022-10-16T02:06:48;12.50;99.90
18139;DHT22;9195;53.176;9.486;2022-10-16T02:09:14;12.50;99.90
18139;DHT22;9195;53.176;9.486;2022-10-16T02:11:42;12.50;99.90
18139;DHT22;9195;53.176;9.486;2022-10-16T02:14:08;12.50;99.90
18139;DHT22;9195;53.176;9.486;2022-10-16T02:16:37;12.50;99.90
18139;DHT22;9195;53.176;9.486;2022-10-16T02:19:03;12.40;99.90
18139;DHT22;9195;53.176;9.486;2022-10-16T02:21:34;12.40;99.90
18139;DHT22;9195;53.176;9.486;2022-10-16T02:26:52;12.30;99.90
18139;DHT22;9195;53.176;9.486;2022-10-16T02:29:22;12.40;99.90
18139;DHT22;9195;53.176;9.486;2022-10-16T02:31:52;12.30;99.90
18139;DHT22;9195;53.176;9.486;2022-10-16T02:34:21;12.30;99.90
18139;DHT22;9195;53.176;9.486;2022-10-16T02:36:48;12.30;99.90
18139;DHT22;9195;53.176;9.486;2022-10-16T02:39:16;12.30;99.90
18139;DHT22;9195;53.176;9.486;2022-10-16T02:41:42;12.20;99.90
18139;DHT22;9195;53.176;9.486;2022-10-16T02:44:08;12.20;99.90
18139;DHT22;9195;53.176;9.486;2022-10-16T02:46:33;12.20;99.90
18139;DHT22;9195;53.176;9.486;2022-10-16T02:48:59;12.20;99.90
18139;DHT22;9195;53.176;9.486;2022-10-16T02:51:24;12.20;99.90
18139;DHT22;9195;53.176;9.486;2022-10-16T02:53:50;12.20;99.90
18139;DHT22;9195;53.176;9.486;2022-10-16T02:56:16;12.20;99.90
18139;DHT22;9195;53.176;9.486;2022-10-16T02:58:41;12.20;99.90
18139;DHT22;9195;53.176;9.486;2022-10-16T03:01:07;12.20;99.90
18139;DHT22;9195;53.176;9.486;2022-10-16T03:03:33;12.10;99.90
18139;DHT22;9195;53.176;9.486;2022-10-16T03:05:58;12.10;99.90
18139;DHT22;9195;53.176;9.486;2022-10-16T03:08:24;12.10;99.90
18139;DHT22;9195;53.176;9.486;2022-10-16T03:10:51;12.10;99.90
18139;DHT22;9195;53.176;9.486;2022-10-16T03:13:17;12.20;99.90
18139;DHT22;9195;53.176;9.486;2022-10-16T03:15:45;12.10;99.90
18139;DHT22;9195;53.176;9.486;2022-10-16T03:18:11;12.10;99.90
18139;DHT22;9195;53.176;9.486;2022-10-16T03:20:37;12.10;99.90
18139;DHT22;9195;53.176;9.486;2022-10-16T03:23:02;12.10;99.90
18139;DHT22;9195;53.176;9.486;2022-10-16T03:25:28;12.10;99.90
18139;DHT22;9195;53.176;9.486;2022-10-16T03:27:54;12.10;99.90
18139;DHT22;9195;53.176;9.486;2022-10-16T03:30:19;12.00;99.90
18139;DHT22;9195;53.176;9.486;2022-10-16T03:32:46;12.00;99.90
18139;DHT22;9195;53.176;9.486;2022-10-16T03:35:12;12.00;99.90
18139;DHT22;9195;53.176;9.486;2022-10-16T03:37:37;12.00;99.90
18139;DHT22;9195;53.176;9.486;2022-10-16T03:40:04;12.00;99.90
18139;DHT22;9195;53.176;9.486;2022-10-16T03:42:30;12.00;99.90
18139;DHT22;9195;53.176;9.486;2022-10-16T03:44:55;12.00;99.90
18139;DHT22;9195;53.176;9.486;2022-10-16T03:47:21;12.00;99.90
18139;DHT22;9195;53.176;9.486;2022-10-16T03:49:49;12.00;99.90
18139;DHT22;9195;53.176;9.486;2022-10-16T03:52:15;12.00;99.90
18139;DHT22;9195;53.176;9.486;2022-10-16T03:54:41;12.00;99.90
18139;DHT22;9195;53.176;9.486;2022-10-16T03:57:07;12.00;99.90
18139;DHT22;9195;53.176;9.486;2022-10-16T03:59:33;12.00;99.90
18139;DHT22;9195;53.176;9.486;2022-10-16T04:01:58;12.00;99.90
18139;DHT22;9195;53.176;9.486;2022-10-16T04:04:24;12.00;99.90
18139;DHT22;9195;53.176;9.486;2022-10-16T04:06:50;12.00;99.90
18139;DHT22;9195;53.176;9.486;2022-10-16T04:09:16;12.00;99.90
18139;DHT22;9195;53.176;9.486;2022-10-16T04:11:41;12.00;99.90
18139;DHT22;9195;53.176;9.486;2022-10-16T04:14:07;12.00;99.90
18139;DHT22;9195;53.176;9.486;2022-10-16T04:16:33;11.90;99.90
18139;DHT22;9195;53.176;9.486;2022-10-16T04:18:58;11.90;99.90
18139;DHT22;9195;53.176;9.486;2022-10-16T04:21:24;11.90;99.90
18139;DHT22;9195;53.176;9.486;2022-10-16T04:23:49;11.90;99.90
18139;DHT22;9195;53.176;9.486;2022-10-16T04:26:15;11.90;99.90
18139;DHT22;9195;53.176;9.486;2022-10-16T04:28:41;11.90;99.90
18139;DHT22;9195;53.176;9.486;2022-10-16T04:31:07;11.90;99.90
18139;DHT22;9195;53.176;9.486;2022-10-16T04:33:33;11.90;99.90
18139;DHT22;9195;53.176;9.486;2022-10-16T04:36:00;11.90;99.90
18139;DHT22;9195;53.176;9.486;2022-10-16T04:38:26;11.90;99.90
18139;DHT22;9195;53.176;9.486;2022-10-16T04:40:52;11.90;99.90
18139;DHT22;9195;53.176;9.486;2022-10-16T04:43:18;11.90;99.90
18139;DHT22;9195;53.176;9.486;2022-10-16T04:45:43;11.90;99.90
18139;DHT22;9195;53.176;9.486;2022-10-16T04:48:09;11.90;99.90
18139;DHT22;9195;53.176;9.486;2022-10-16T04:50:35;11.90;99.90
18139;DHT22;9195;53.176;9.486;2022-10-16T04:53:00;11.90;99.90
18139;DHT22;9195;53.176;9.486;2022-10-16T04:55:26;11.90;99.90
18139;DHT22;9195;53.176;9.486;2022-10-16T04:57:52;11.90;99.90
18139;DHT22;9195;53.176;9.486;2022-10-16T05:00:17;11.90;99.90
18139;DHT22;9195;53.176;9.486;2022-10-16T05:02:43;11.90;99.90
18139;DHT22;9195;53.176;9.486;2022-10-16T05:05:09;11.90;99.90
18139;DHT22;9195;53.176;9.486;2022-10-16T05:07:35;11.80;99.90
18139;DHT22;9195;53.176;9.486;2022-10-16T05:10:00;11.80;99.90
18139;DHT22;9195;53.176;9.486;2022-10-16T05:12:26;11.90;99.90
18139;DHT22;9195;53.176;9.486;2022-10-16T05:14:52;11.80;99.90
18139;DHT22;9195;53.176;9.486;2022-10-16T05:17:17;11.80;99.90
18139;DHT22;9195;53.176;9.486;2022-10-16T05:19:43;11.90;99.90
18139;DHT22;9195;53.176;9.486;2022-10-16T05:22:08;11.80;99.90
18139;DHT22;9195;53.176;9.486;2022-10-16T05:24:34;11.80;99.90
18139;DHT22;9195;53.176;9.486;2022-10-16T05:27:00;11.80;99.90
18139;DHT22;9195;53.176;9.486;2022-10-16T05:29:25;11.80;99.90
18139;DHT22;9195;53.176;9.486;2022-10-16T05:31:54;11.80;99.90
18139;DHT22;9195;53.176;9.486;2022-10-16T05:34:20;11.80;99.90
18139;DHT22;9195;53.176;9.486;2022-10-16T05:36:46;11.80;99.90
18139;DHT22;9195;53.176;9.486;2022-10-16T05:39:13;11.80;99.90
18139;DHT22;9195;53.176;9.486;2022-10-16T05:41:39;11.80;99.90
18139;DHT22;9195;53.176;9.486;2022-10-16T05:44:05;11.80;99.90
18139;DHT22;9195;53.176;9.486;2022-10-16T05:46:32;11.90;99.90
18139;DHT22;9195;53.176;9.486;2022-10-16T05:48:58;11.80;99.90
18139;DHT22;9195;53.176;9.486;2022-10-16T05:51:23;11.80;99.90
18139;DHT22;9195;53.176;9.486;2022-10-16T05:53:49;11.90;99.90
18139;DHT22;9195;53.176;9.486;2022-10-16T05:56:15;11.90;99.90
18139;DHT22;9195;53.176;9.486;2022-10-16T05:58:41;11.90;99.90
18139;DHT22;9195;53.176;9.486;2022-10-16T06:01:16;11.90;99.90
18139;DHT22;9195;53.176;9.486;2022-10-16T06:03:42;11.90;99.90
18139;DHT22;9195;53.176;9.486;2022-10-16T06:06:13;11.90;99.90
18139;DHT22;9195;53.176;9.486;2022-10-16T06:08:40;11.90;99.90
18139;DHT22;9195;53.176;9.486;2022-10-16T06:11:08;12.00;99.90
18139;DHT22;9195;53.176;9.486;2022-10-16T06:13:34;12.00;99.90
18139;DHT22;9195;53.176;9.486;2022-10-16T06:16:00;12.00;99.90
18139;DHT22;9195;53.176;9.486;2022-10-16T06:18:28;12.00;99.90
18139;DHT22;9195;53.176;9.486;2022-10-16T06:20:54;12.00;99.90
18139;DHT22;9195;53.176;9.486;2022-10-16T06:23:20;12.10;99.90
18139;DHT22;9195;53.176;9.486;2022-10-16T06:25:46;12.10;99.90
18139;DHT22;9195;53.176;9.486;2022-10-16T06:28:14;12.10;99.90
18139;DHT22;9195;53.176;9.486;2022-10-16T06:30:39;12.20;99.90
18139;DHT22;9195;53.176;9.486;2022-10-16T06:33:05;12.20;99.90
18139;DHT22;9195;53.176;9.486;2022-10-16T06:35:31;12.20;99.90
18139;DHT22;9195;53.176;9.486;2022-10-16T06:37:57;12.30;99.90
18139;DHT22;9195;53.176;9.486;2022-10-16T06:40:23;12.30;99.90
18139;DHT22;9195;53.176;9.486;2022-10-16T06:42:49;12.30;99.90
18139;DHT22;9195;53.176;9.486;2022-10-16T06:45:15;12.40;99.90
18139;DHT22;9195;53.176;9.486;2022-10-16T06:47:41;12.50;99.90
18139;DHT22;9195;53.176;9.486;2022-10-16T06:50:07;12.50;99.90
18139;DHT22;9195;53.176;9.486;2022-10-16T06:52:33;12.60;99.90
18139;DHT22;9195;53.176;9.486;2022-10-16T06:54:59;12.70;99.90
18139;DHT22;9195;53.176;9.486;2022-10-16T06:57:25;12.70;99.90
18139;DHT22;9195;53.176;9.486;2022-10-16T06:59:50;12.80;99.90
18139;DHT22;9195;53.176;9.486;2022-10-16T07:02:16;12.90;99.90
18139;DHT22;9195;53.176;9.486;2022-10-16T07:04:41;12.90;99.90
18139;DHT22;9195;53.176;9.486;2022-10-16T07:07:07;13.00;99.90
18139;DHT22;9195;53.176;9.486;2022-10-16T07:09:32;13.10;99.90
18139;DHT22;9195;53.176;9.486;2022-10-16T07:11:58;13.10;99.90
18139;DHT22;9195;53.176;9.486;2022-10-16T07:14:24;13.20;99.90
18139;DHT22;9195;53.176;9.486;2022-10-16T07:16:50;13.30;99.90
18139;DHT22;9195;53.176;9.486;2022-10-16T07:19:15;13.40;99.90
18139;DHT22;9195;53.176;9.486;2022-10-16T07:21:43;13.50;99.90
18139;DHT22;9195;53.176;9.486;2022-10-16T07:24:14;13.50;99.90
18139;DHT22;9195;53.176;9.486;2022-10-16T07:26:41;13.60;99.90
18139;DHT22;9195;53.176;9.486;2022-10-16T07:29:12;13.70;99.90
18139;DHT22;9195;53.176;9.486;2022-10-16T07:31:38;13.80;99.90
18139;DHT22;9195;53.176;9.486;2022-10-16T07:34:05;14.00;99.90
18139;DHT22;9195;53.176;9.486;2022-10-16T07:36:31;14.10;99.90
18139;DHT22;9195;53.176;9.486;2022-10-16T07:38:57;14.10;99.90
18139;DHT22;9195;53.176;9.486;2022-10-16T07:41:22;14.30;99.90
18139;DHT22;9195;53.176;9.486;2022-10-16T07:43:50;14.40;99.90
18139;DHT22;9195;53.176;9.486;2022-10-16T07:46:17;14.60;99.90
18139;DHT22;9195;53.176;9.486;2022-10-16T07:48:44;14.70;99.90
18139;DHT22;9195;53.176;9.486;2022-10-16T07:51:13;14.80;99.90
18139;DHT22;9195;53.176;9.486;2022-10-16T07:53:39;14.90;99.90
18139;DHT22;9195;53.176;9.486;2022-10-16T07:56:06;15.10;99.90
18139;DHT22;9195;53.176;9.486;2022-10-16T07:58:33;15.20;99.90
18139;DHT22;9195;53.176;9.486;2022-10-16T08:01:04;15.40;99.90
18139;DHT22;9195;53.176;9.486;2022-10-16T08:03:30;15.60;99.90
18139;DHT22;9195;53.176;9.486;2022-10-16T08:05:57;15.80;99.90
18139;DHT22;9195;53.176;9.486;2022-10-16T08:08:24;15.90;99.90
18139;DHT22;9195;53.176;9.486;2022-10-16T08:10:49;16.00;99.90
18139;DHT22;9195;53.176;9.486;2022-10-16T08:13:15;16.00;99.90
18139;DHT22;9195;53.176;9.486;2022-10-16T08:15:42;16.00;99.90
18139;DHT22;9195;53.176;9.486;2022-10-16T08:18:09;16.00;99.90
18139;DHT22;9195;53.176;9.486;2022-10-16T08:20:34;16.00;99.90
18139;DHT22;9195;53.176;9.486;2022-10-16T08:23:01;16.10;99.90
18139;DHT22;9195;53.176;9.486;2022-10-16T08:25:27;16.10;99.90
18139;DHT22;9195;53.176;9.486;2022-10-16T08:27:52;15.90;99.90
18139;DHT22;9195;53.176;9.486;2022-10-16T08:30:20;16.00;99.90
18139;DHT22;9195;53.176;9.486;2022-10-16T08:32:46;16.10;99.90
18139;DHT22;9195;53.176;9.486;2022-10-16T08:35:12;16.10;99.90
18139;DHT22;9195;53.176;9.486;2022-10-16T08:37:39;16.20;99.90
18139;DHT22;9195;53.176;9.486;2022-10-16T08:40:07;16.30;99.90
18139;DHT22;9195;53.176;9.486;2022-10-16T08:43:05;16.30;99.90
18139;DHT22;9195;53.176;9.486;2022-10-16T08:48:35;16.60;99.90
18139;DHT22;9195;53.176;9.486;2022-10-16T08:51:08;17.00;99.90
18139;DHT22;9195;53.176;9.486;2022-10-16T08:53:46;17.40;99.90
18139;DHT22;9195;53.176;9.486;2022-10-16T08:56:14;17.70;99.90
18139;DHT22;9195;53.176;9.486;2022-10-16T08:58:40;17.60;99.90
18139;DHT22;9195;53.176;9.486;2022-10-16T09:01:16;17.80;99.90
18139;DHT22;9195;53.176;9.486;2022-10-16T09:06:32;18.00;99.90
18139;DHT22;9195;53.176;9.486;2022-10-16T09:12:16;17.60;99.90
18139;DHT22;9195;53.176;9.486;2022-10-16T09:15:05;17.50;99.90
18139;DHT22;9195;53.176;9.486;2022-10-16T09:22:45;18.20;99.90
18139;DHT22;9195;53.176;9.486;2022-10-16T09:25:16;18.50;99.90
18139;DHT22;9195;53.176;9.486;2022-10-16T09:27:46;18.30;99.90
18139;DHT22;9195;53.176;9.486;2022-10-16T09:30:18;18.20;99.90
18139;DHT22;9195;53.176;9.486;2022-10-16T09:32:47;18.60;99.90
18139;DHT22;9195;53.176;9.486;2022-10-16T09:35:20;18.80;99.90
18139;DHT22;9195;53.176;9.486;2022-10-16T09:37:49;18.50;99.90
18139;DHT22;9195;53.176;9.486;2022-10-16T09:40:28;18.90;99.90
18139;DHT22;9195;53.176;9.486;2022-10-16T09:45:43;18.80;99.90
18139;DHT22;9195;53.176;9.486;2022-10-16T09:48:19;18.70;99.90
18139;DHT22;9195;53.176;9.486;2022-10-16T09:51:04;19.10;99.90
18139;DHT22;9195;53.176;9.486;2022-10-16T09:53:42;19.20;99.90
18139;DHT22;9195;53.176;9.486;2022-10-16T09:56:11;19.40;99.90
18139;DHT22;9195;53.176;9.486;2022-10-16T09:58:42;19.70;99.90
18139;DHT22;9195;53.176;9.486;2022-10-16T10:01:14;19.60;99.90
18139;DHT22;9195;53.176;9.486;2022-10-16T10:03:42;19.60;99.90
18139;DHT22;9195;53.176;9.486;2022-10-16T10:06:18;19.50;99.90
18139;DHT22;9195;53.176;9.486;2022-10-16T10:11:39;19.90;99.90
18139;DHT22;9195;53.176;9.486;2022-10-16T10:16:53;20.80;99.90
18139;DHT22;9195;53.176;9.486;2022-10-16T10:19:27;20.60;99.90
18139;DHT22;9195;53.176;9.486;2022-10-16T10:21:52;20.50;99.90
18139;DHT22;9195;53.176;9.486;2022-10-16T10:24:19;20.40;99.90
18139;DHT22;9195;53.176;9.486;2022-10-16T10:26:53;20.50;99.90
18139;DHT22;9195;53.176;9.486;2022-10-16T10:32:25;20.10;99.90
18139;DHT22;9195;53.176;9.486;2022-10-16T10:37:55;19.80;99.90
18139;DHT22;9195;53.176;9.486;2022-10-16T10:40:49;20.30;99.90
18139;DHT22;9195;53.176;9.486;2022-10-16T10:46:05;21.50;99.90
18139;DHT22;9195;53.176;9.486;2022-10-16T10:49:09;21.70;99.90
18139;DHT22;9195;53.176;9.486;2022-10-16T10:57:36;21.70;99.90
18139;DHT22;9195;53.176;9.486;2022-10-16T11:00:18;22.30;99.90
18139;DHT22;9195;53.176;9.486;2022-10-16T11:05:38;23.10;99.90
18139;DHT22;9195;53.176;9.486;2022-10-16T11:11:04;21.90;99.90
18139;DHT22;9195;53.176;9.486;2022-10-16T11:13:45;20.60;99.90
18139;DHT22;9195;53.176;9.486;2022-10-16T11:19:05;23.60;99.90
18139;DHT22;9195;53.176;9.486;2022-10-16T11:21:43;24.80;99.90
18139;DHT22;9195;53.176;9.486;2022-10-16T11:24:33;26.20;98.10
18139;DHT22;9195;53.176;9.486;2022-10-16T11:27:04;27.50;95.50
18139;DHT22;9195;53.176;9.486;2022-10-16T11:29:33;28.20;93.40
18139;DHT22;9195;53.176;9.486;2022-10-16T11:32:06;27.30;93.60
18139;DHT22;9195;53.176;9.486;2022-10-16T11:34:41;26.40;94.10
18139;DHT22;9195;53.176;9.486;2022-10-16T11:37:10;26.70;94.80
18139;DHT22;9195;53.176;9.486;2022-10-16T11:39:38;26.60;93.90
18139;DHT22;9195;53.176;9.486;2022-10-16T11:44:54;27.20;92.50
18139;DHT22;9195;53.176;9.486;2022-10-16T11:50:03;25.00;93.50
18139;DHT22;9195;53.176;9.486;2022-10-16T11:55:39;25.30;94.20
18139;DHT22;9195;53.176;9.486;2022-10-16T11:58:28;25.90;92.50
18139;DHT22;9195;53.176;9.486;2022-10-16T12:03:42;27.50;90.70
18139;DHT22;9195;53.176;9.486;2022-10-16T12:08:49;27.90;90.30
18139;DHT22;9195;53.176;9.486;2022-10-16T12:13:50;26.50;90.20
18139;DHT22;9195;53.176;9.486;2022-10-16T12:18:44;28.30;88.10
18139;DHT22;9195;53.176;9.486;2022-10-16T12:21:10;27.40;88.00
18139;DHT22;9195;53.176;9.486;2022-10-16T12:24:02;25.30;90.60
18139;DHT22;9195;53.176;9.486;2022-10-16T12:26:34;26.10;90.90
18139;DHT22;9195;53.176;9.486;2022-10-16T12:29:32;26.30;90.00
18139;DHT22;9195;53.176;9.486;2022-10-16T12:31:58;25.80;90.30
18139;DHT22;9195;53.176;9.486;2022-10-16T12:34:37;26.20;90.70
18139;DHT22;9195;53.176;9.486;2022-10-16T12:37:35;25.80;89.50
18139;DHT22;9195;53.176;9.486;2022-10-16T12:42:39;24.60;91.80
18139;DHT22;9195;53.176;9.486;2022-10-16T12:47:55;21.80;94.00
18139;DHT22;9195;53.176;9.486;2022-10-16T12:52:57;21.60;93.60
18139;DHT22;9195;53.176;9.486;2022-10-16T12:55:23;20.90;94.10
18139;DHT22;9195;53.176;9.486;2022-10-16T13:08:55;24.10;91.90
18139;DHT22;9195;53.176;9.486;2022-10-16T13:11:45;23.00;92.10
18139;DHT22;9195;53.176;9.486;2022-10-16T13:20:01;20.10;94.90
18139;DHT22;9195;53.176;9.486;2022-10-16T13:23:19;19.80;96.00
18139;DHT22;9195;53.176;9.486;2022-10-16T13:25:45;19.70;96.30
18139;DHT22;9195;53.176;9.486;2022-10-16T13:28:13;19.30;96.90
18139;DHT22;9195;53.176;9.486;2022-10-16T13:30:43;19.40;97.20
18139;DHT22;9195;53.176;9.486;2022-10-16T13:33:38;19.50;97.30
18139;DHT22;9195;53.176;9.486;2022-10-16T13:36:06;19.20;96.60
18139;DHT22;9195;53.176;9.486;2022-10-16T13:38:34;19.40;96.60
18139;DHT22;9195;53.176;9.486;2022-10-16T13:48:26;18.50;97.70
18139;DHT22;9195;53.176;9.486;2022-10-16T13:51:17;22.80;96.10
18139;DHT22;9195;53.176;9.486;2022-10-16T13:53:44;25.30;92.70
18139;DHT22;9195;53.176;9.486;2022-10-16T13:56:20;27.90;90.00
18139;DHT22;9195;53.176;9.486;2022-10-16T13:58:58;24.90;90.40
18139;DHT22;9195;53.176;9.486;2022-10-16T14:01:26;22.40;92.10
18139;DHT22;9195;53.176;9.486;2022-10-16T14:03:53;21.60;93.50
18139;DHT22;9195;53.176;9.486;2022-10-16T14:06:25;21.90;94.40
18139;DHT22;9195;53.176;9.486;2022-10-16T14:09:24;24.20;92.60
18139;DHT22;9195;53.176;9.486;2022-10-16T14:11:54;26.50;90.00
18139;DHT22;9195;53.176;9.486;2022-10-16T14:14:21;27.20;85.90
18139;DHT22;9195;53.176;9.486;2022-10-16T14:16:48;27.80;85.10
18139;DHT22;9195;53.176;9.486;2022-10-16T14:19:25;26.90;84.80
18139;DHT22;9195;53.176;9.486;2022-10-16T14:21:52;27.20;84.20
18139;DHT22;9195;53.176;9.486;2022-10-16T14:26:56;25.40;89.10
18139;DHT22;9195;53.176;9.486;2022-10-16T14:29:23;24.50;90.40
18139;DHT22;9195;53.176;9.486;2022-10-16T14:31:57;23.80;91.10
18139;DHT22;9195;53.176;9.486;2022-10-16T14:34:35;22.70;91.50
18139;DHT22;9195;53.176;9.486;2022-10-16T14:37:13;22.20;92.50
18139;DHT22;9195;53.176;9.486;2022-10-16T14:39:40;21.90;92.80
18139;DHT22;9195;53.176;9.486;2022-10-16T14:42:14;21.50;93.20
18139;DHT22;9195;53.176;9.486;2022-10-16T14:44:42;21.30;93.50
18139;DHT22;9195;53.176;9.486;2022-10-16T14:47:12;20.80;93.80
18139;DHT22;9195;53.176;9.486;2022-10-16T14:49:39;20.50;93.70
18139;DHT22;9195;53.176;9.486;2022-10-16T14:52:11;20.60;94.10
18139;DHT22;9195;53.176;9.486;2022-10-16T14:54:37;20.70;94.00
18139;DHT22;9195;53.176;9.486;2022-10-16T14:57:03;20.40;94.20
18139;DHT22;9195;53.176;9.486;2022-10-16T14:59:37;20.40;94.30
18139;DHT22;9195;53.176;9.486;2022-10-16T15:04:48;20.20;94.60
18139;DHT22;9195;53.176;9.486;2022-10-16T15:07:14;20.20;95.00
18139;DHT22;9195;53.176;9.486;2022-10-16T15:09:40;20.20;94.70
18139;DHT22;9195;53.176;9.486;2022-10-16T15:12:05;20.10;94.90
18139;DHT22;9195;53.176;9.486;2022-10-16T15:14:37;20.10;95.00
18139;DHT22;9195;53.176;9.486;2022-10-16T15:17:03;20.00;94.60
18139;DHT22;9195;53.176;9.486;2022-10-16T15:19:29;19.90;95.00
18139;DHT22;9195;53.176;9.486;2022-10-16T15:21:55;19.90;95.40
18139;DHT22;9195;53.176;9.486;2022-10-16T15:24:20;19.90;95.70
18139;DHT22;9195;53.176;9.486;2022-10-16T15:26:46;19.90;95.80
18139;DHT22;9195;53.176;9.486;2022-10-16T15:29:12;19.80;95.90
18139;DHT22;9195;53.176;9.486;2022-10-16T15:31:38;19.70;96.20
18139;DHT22;9195;53.176;9.486;2022-10-16T15:34:04;19.70;96.30
18139;DHT22;9195;53.176;9.486;2022-10-16T15:36:35;19.50;96.00
18139;DHT22;9195;53.176;9.486;2022-10-16T15:39:20;19.50;96.90
18139;DHT22;9195;53.176;9.486;2022-10-16T15:41:47;19.30;96.40
18139;DHT22;9195;53.176;9.486;2022-10-16T15:44:16;19.40;96.90
18139;DHT22;9195;53.176;9.486;2022-10-16T15:46:42;19.30;96.60
18139;DHT22;9195;53.176;9.486;2022-10-16T15:49:08;19.10;96.70
18139;DHT22;9195;53.176;9.486;2022-10-16T15:51:38;18.90;96.90
18139;DHT22;9195;53.176;9.486;2022-10-16T15:54:04;18.60;97.00
18139;DHT22;9195;53.176;9.486;2022-10-16T15:56:30;18.40;97.50
18139;DHT22;9195;53.176;9.486;2022-10-16T15:58:59;18.30;97.70
18139;DHT22;9195;53.176;9.486;2022-10-16T16:01:25;18.10;97.80
18139;DHT22;9195;53.176;9.486;2022-10-16T16:03:54;18.00;98.20
18139;DHT22;9195;53.176;9.486;2022-10-16T16:06:21;17.90;99.10
18139;DHT22;9195;53.176;9.486;2022-10-16T16:08:48;17.70;98.80
18139;DHT22;9195;53.176;9.486;2022-10-16T16:11:15;17.50;99.00
18139;DHT22;9195;53.176;9.486;2022-10-16T16:13:41;17.40;99.40
18139;DHT22;9195;53.176;9.486;2022-10-16T16:16:08;17.30;99.30
18139;DHT22;9195;53.176;9.486;2022-10-16T16:18:34;17.20;99.50
18139;DHT22;9195;53.176;9.486;2022-10-16T16:20:59;17.10;99.70
18139;DHT22;9195;53.176;9.486;2022-10-16T16:23:25;16.90;99.90
18139;DHT22;9195;53.176;9.486;2022-10-16T16:26:04;16.80;99.90
18139;DHT22;9195;53.176;9.486;2022-10-16T16:28:30;16.70;99.90
18139;DHT22;9195;53.176;9.486;2022-10-16T16:30:56;16.60;99.90
18139;DHT22;9195;53.176;9.486;2022-10-16T16:33:22;16.50;99.90
18139;DHT22;9195;53.176;9.486;2022-10-16T16:35:47;16.40;99.90
18139;DHT22;9195;53.176;9.486;2022-10-16T16:38:13;16.30;99.90
18139;DHT22;9195;53.176;9.486;2022-10-16T16:40:39;16.20;99.90
18139;DHT22;9195;53.176;9.486;2022-10-16T16:43:04;16.10;99.90
18139;DHT22;9195;53.176;9.486;2022-10-16T16:45:30;16.00;99.90
18139;DHT22;9195;53.176;9.486;2022-10-16T16:47:55;15.90;99.90
18139;DHT22;9195;53.176;9.486;2022-10-16T16:50:21;15.90;99.90
18139;DHT22;9195;53.176;9.486;2022-10-16T16:52:47;15.80;99.90
18139;DHT22;9195;53.176;9.486;2022-10-16T16:55:12;15.70;99.90
18139;DHT22;9195;53.176;9.486;2022-10-16T16:57:38;15.60;99.90
18139;DHT22;9195;53.176;9.486;2022-10-16T17:00:04;15.50;99.90
18139;DHT22;9195;53.176;9.486;2022-10-16T17:02:30;15.30;99.90
18139;DHT22;9195;53.176;9.486;2022-10-16T17:04:55;15.20;99.90
18139;DHT22;9195;53.176;9.486;2022-10-16T17:07:22;15.10;99.90
18139;DHT22;9195;53.176;9.486;2022-10-16T17:09:50;15.00;99.90
18139;DHT22;9195;53.176;9.486;2022-10-16T17:12:16;14.90;99.90
18139;DHT22;9195;53.176;9.486;2022-10-16T17:14:41;14.80;99.90
18139;DHT22;9195;53.176;9.486;2022-10-16T17:17:07;14.70;99.90
18139;DHT22;9195;53.176;9.486;2022-10-16T17:19:32;14.60;99.90
18139;DHT22;9195;53.176;9.486;2022-10-16T17:21:58;14.50;99.90
18139;DHT22;9195;53.176;9.486;2022-10-16T17:24:24;14.40;99.90
18139;DHT22;9195;53.176;9.486;2022-10-16T17:26:49;14.30;99.90
18139;DHT22;9195;53.176;9.486;2022-10-16T17:29:17;14.30;99.90
18139;DHT22;9195;53.176;9.486;2022-10-16T17:31:43;14.20;99.90
18139;DHT22;9195;53.176;9.486;2022-10-16T17:34:09;14.00;99.90
18139;DHT22;9195;53.176;9.486;2022-10-16T17:36:37;13.90;99.90
18139;DHT22;9195;53.176;9.486;2022-10-16T17:39:06;13.80;99.90
18139;DHT22;9195;53.176;9.486;2022-10-16T17:41:33;13.80;99.90
18139;DHT22;9195;53.176;9.486;2022-10-16T17:43:59;13.70;99.90
18139;DHT22;9195;53.176;9.486;2022-10-16T17:46:25;13.60;99.90
18139;DHT22;9195;53.176;9.486;2022-10-16T17:48:52;13.50;99.90
18139;DHT22;9195;53.176;9.486;2022-10-16T17:51:26;13.50;99.90
18139;DHT22;9195;53.176;9.486;2022-10-16T17:53:55;13.40;99.90